sensor_id;sensor_type;location;lat;lon;timestamp;pressure;altitude;pressure_sealevel;temperature;humidity
9893;BME280;4985;49.092;8.542;2022-09-09T00:01:57;98913.41;;;23.27;47.60
9893;BME280;4985;49.092;8.542;2022-09-09T00:04:28;98910.72;;;23.27;47.60
9893;BME280;4985;49.092;8.542;2022-09-09T00:07:03;98913.66;;;23.26;47.62
9893;BME280;4985;49.092;8.542;2022-09-09T00:09:31;98913.66;;;23.26;47.59
9893;BME280;4985;49.092;8.542;2022-09-09T00:12:10;98908.31;;;23.26;47.61
9893;BME280;4985;49.092;8.542;2022-09-09T00:14:42;98911.78;;;23.26;47.64
9893;BME280;4985;49.092;8.542;2022-09-09T00:17:14;98913.66;;;23.26;47.60
9893;BME280;4985;49.092;8.542;2022-09-09T00:19:51;98919.03;;;23.26;47.62
9893;BME280;4985;49.092;8.542;2022-09-09T00:22:20;98922.78;;;23.24;47.57
9893;BME280;4985;49.092;8.542;2022-09-09T00:24:50;98920.13;;;23.24;47.56
9893;BME280;4985;49.092;8.542;2022-09-09T00:27:23;98906.69;;;23.24;47.64
9893;BME280;4985;49.092;8.542;2022-09-09T00:29:55;98911.25;;;23.24;47.65
9893;BME280;4985;49.092;8.542;2022-09-09T00:32:28;98917.44;;;23.24;47.65
9893;BME280;4985;49.092;8.542;2022-09-09T00:35:02;98910.44;;;23.23;47.57
9893;BME280;4985;49.092;8.542;2022-09-09T00:37:31;98916.63;;;23.24;47.58
9893;BME280;4985;49.092;8.542;2022-09-09T00:40:01;98912.06;;;23.24;47.56
9893;BME280;4985;49.092;8.542;2022-09-09T00:42:36;98905.06;;;23.23;47.56
9893;BME280;4985;49.092;8.542;2022-09-09T00:45:17;98911.50;;;23.22;47.59
9893;BME280;4985;49.092;8.542;2022-09-09T00:47:46;98915.22;;;23.21;47.65
9893;BME280;4985;49.092;8.542;2022-09-09T00:50:38;98911.72;;;23.21;47.63
9893;BME280;4985;49.092;8.542;2022-09-09T00:53:19;98909.56;;;23.18;47.63
9893;BME280;4985;49.092;8.542;2022-09-09T00:55:56;98911.72;;;23.21;47.61
9893;BME280;4985;49.092;8.542;2022-09-09T00:58:24;98904.75;;;23.20;47.59
9893;BME280;4985;49.092;8.542;2022-09-09T01:00:57;98913.59;;;23.20;47.59
9893;BME280;4985;49.092;8.542;2022-09-09T01:03:34;98910.91;;;23.20;47.60
9893;BME280;4985;49.092;8.542;2022-09-09T01:06:12;98908.50;;;23.19;47.62
9893;BME280;4985;49.092;8.542;2022-09-09T01:11:38;98903.94;;;23.19;47.60
9893;BME280;4985;49.092;8.542;2022-09-09T01:14:19;98913.88;;;23.19;47.58
9893;BME280;4985;49.092;8.542;2022-09-09T01:16:50;98913.06;;;23.18;47.61
9893;BME280;4985;49.092;8.542;2022-09-09T01:19:24;98915.75;;;23.18;47.60
9893;BME280;4985;49.092;8.542;2022-09-09T01:22:03;98922.19;;;23.17;47.59
9893;BME280;4985;49.092;8.542;2022-09-09T01:24:40;98924.88;;;23.17;47.62
9893;BME280;4985;49.092;8.542;2022-09-09T01:27:11;98923.25;;;23.16;47.58
9893;BME280;4985;49.092;8.542;2022-09-09T01:29:40;98926.44;;;23.13;47.60
9893;BME280;4985;49.092;8.542;2022-09-09T01:32:38;98923.50;;;23.15;47.54
9893;BME280;4985;49.092;8.542;2022-09-09T01:35:08;98938.19;;;23.07;47.71
9893;BME280;4985;49.092;8.542;2022-09-09T01:37:35;98934.69;;;23.07;47.54
9893;BME280;4985;49.092;8.542;2022-09-09T01:40:02;98934.25;;;22.88;47.68
9893;BME280;4985;49.092;8.542;2022-09-09T01:42:30;98928.47;;;22.57;47.98
9893;BME280;4985;49.092;8.542;2022-09-09T01:44:57;98925.28;;;22.38;48.48
9893;BME280;4985;49.092;8.542;2022-09-09T01:47:24;98931.00;;;22.25;48.49
9893;BME280;4985;49.092;8.542;2022-09-09T01:49:51;98939.81;;;22.21;48.64
9893;BME280;4985;49.092;8.542;2022-09-09T01:52:17;98943.41;;;22.10;48.88
9893;BME280;4985;49.092;8.542;2022-09-09T01:54:44;98942.97;;;22.01;48.92
9893;BME280;4985;49.092;8.542;2022-09-09T01:57:15;98934.63;;;21.97;49.09
9893;BME280;4985;49.092;8.542;2022-09-09T01:59:51;98936.78;;;22.00;49.20
9893;BME280;4985;49.092;8.542;2022-09-09T02:02:26;98937.34;;;22.02;49.18
9893;BME280;4985;49.092;8.542;2022-09-09T02:05:02;98921.78;;;21.99;49.24
9893;BME280;4985;49.092;8.542;2022-09-09T02:07:38;98934.03;;;21.95;49.51
9893;BME280;4985;49.092;8.542;2022-09-09T02:10:10;98934.53;;;21.92;49.98
9893;BME280;4985;49.092;8.542;2022-09-09T02:12:41;98938.09;;;21.98;50.00
9893;BME280;4985;49.092;8.542;2022-09-09T02:15:17;98936.44;;;21.97;49.98
9893;BME280;4985;49.092;8.542;2022-09-09T02:17:48;98931.19;;;21.85;50.54
9893;BME280;4985;49.092;8.542;2022-09-09T02:20:18;98929.91;;;21.88;50.53
9893;BME280;4985;49.092;8.542;2022-09-09T02:22:48;98910.81;;;22.01;50.29
9893;BME280;4985;49.092;8.542;2022-09-09T02:25:18;98911.22;;;22.10;50.02
9893;BME280;4985;49.092;8.542;2022-09-09T02:27:47;98910.97;;;21.94;50.38
9893;BME280;4985;49.092;8.542;2022-09-09T02:30:17;98896.75;;;21.94;50.44
9893;BME280;4985;49.092;8.542;2022-09-09T02:32:45;98904.53;;;21.95;50.31
9893;BME280;4985;49.092;8.542;2022-09-09T02:35:15;98909.44;;;21.98;50.25
9893;BME280;4985;49.092;8.542;2022-09-09T02:37:44;98913.31;;;22.07;50.09
9893;BME280;4985;49.092;8.542;2022-09-09T02:40:13;98906.25;;;22.01;50.16
9893;BME280;4985;49.092;8.542;2022-09-09T02:42:42;98898.38;;;22.12;49.69
9893;BME280;4985;49.092;8.542;2022-09-09T02:45:10;98903.56;;;22.18;49.63
9893;BME280;4985;49.092;8.542;2022-09-09T02:47:43;98898.19;;;22.18;49.73
9893;BME280;4985;49.092;8.542;2022-09-09T02:50:17;98905.50;;;22.23;49.54
9893;BME280;4985;49.092;8.542;2022-09-09T02:52:54;98894.31;;;22.31;49.21
9893;BME280;4985;49.092;8.542;2022-09-09T02:55:29;98885.06;;;22.38;48.98
9893;BME280;4985;49.092;8.542;2022-09-09T02:58:04;98879.78;;;22.44;48.82
9893;BME280;4985;49.092;8.542;2022-09-09T03:00:33;98880.06;;;22.47;48.67
9893;BME280;4985;49.092;8.542;2022-09-09T03:03:03;98881.19;;;22.51;48.58
9893;BME280;4985;49.092;8.542;2022-09-09T03:05:29;98889.78;;;22.53;48.51
9893;BME280;4985;49.092;8.542;2022-09-09T03:07:57;98891.44;;;22.54;48.46
9893;BME280;4985;49.092;8.542;2022-09-09T03:10:24;98880.94;;;22.53;48.41
9893;BME280;4985;49.092;8.542;2022-09-09T03:12:50;98893.59;;;22.57;48.38
9893;BME280;4985;49.092;8.542;2022-09-09T03:15:17;98897.91;;;22.58;48.36
9893;BME280;4985;49.092;8.542;2022-09-09T03:17:43;98898.72;;;22.59;48.33
9893;BME280;4985;49.092;8.542;2022-09-09T03:20:11;98899.53;;;22.59;48.29
9893;BME280;4985;49.092;8.542;2022-09-09T03:22:38;98902.75;;;22.61;48.27
9893;BME280;4985;49.092;8.542;2022-09-09T03:25:06;98899.00;;;22.62;48.24
9893;BME280;4985;49.092;8.542;2022-09-09T03:27:32;98894.47;;;22.63;48.20
9893;BME280;4985;49.092;8.542;2022-09-09T03:29:59;98893.16;;;22.65;48.17
9893;BME280;4985;49.092;8.542;2022-09-09T03:32:29;98889.41;;;22.66;48.14
9893;BME280;4985;49.092;8.542;2022-09-09T03:34:56;98891.03;;;22.67;48.11
9893;BME280;4985;49.092;8.542;2022-09-09T03:37:24;98898.03;;;22.69;48.09
9893;BME280;4985;49.092;8.542;2022-09-09T03:39:51;98893.47;;;22.69;48.07
9893;BME280;4985;49.092;8.542;2022-09-09T03:42:19;98895.91;;;22.71;48.04
9893;BME280;4985;49.092;8.542;2022-09-09T03:44:46;98890.53;;;22.71;48.04
9893;BME280;4985;49.092;8.542;2022-09-09T03:47:15;98890.53;;;22.71;48.04
9893;BME280;4985;49.092;8.542;2022-09-09T03:49:42;98903.94;;;22.71;48.03
9893;BME280;4985;49.092;8.542;2022-09-09T03:52:09;98899.38;;;22.71;48.02
9893;BME280;4985;49.092;8.542;2022-09-09T03:54:37;98893.47;;;22.69;48.03
9893;BME280;4985;49.092;8.542;2022-09-09T03:57:04;98892.41;;;22.70;48.04
9893;BME280;4985;49.092;8.542;2022-09-09T03:59:31;98894.03;;;22.71;48.03
9893;BME280;4985;49.092;8.542;2022-09-09T04:01:57;98903.69;;;22.72;48.03
9893;BME280;4985;49.092;8.542;2022-09-09T04:04:24;98906.13;;;22.74;48.05
9893;BME280;4985;49.092;8.542;2022-09-09T04:06:51;98900.75;;;22.74;48.02
9893;BME280;4985;49.092;8.542;2022-09-09T04:09:18;98896.44;;;22.73;48.02
9893;BME280;4985;49.092;8.542;2022-09-09T04:11:46;98901.56;;;22.74;48.04
9893;BME280;4985;49.092;8.542;2022-09-09T04:14:13;98900.50;;;22.75;48.06
9893;BME280;4985;49.092;8.542;2022-09-09T04:16:39;98898.63;;;22.76;48.08
9893;BME280;4985;49.092;8.542;2022-09-09T04:19:08;98902.94;;;22.77;48.05
9893;BME280;4985;49.092;8.542;2022-09-09T04:21:37;98902.94;;;22.77;48.04
9893;BME280;4985;49.092;8.542;2022-09-09T04:24:05;98914.50;;;22.77;48.07
9893;BME280;4985;49.092;8.542;2022-09-09T04:26:32;98910.16;;;22.76;48.08
9893;BME280;4985;49.092;8.542;2022-09-09T04:29:00;98909.94;;;22.78;48.07
9893;BME280;4985;49.092;8.542;2022-09-09T04:31:26;98918.00;;;22.78;48.12
9893;BME280;4985;49.092;8.542;2022-09-09T04:33:53;98917.19;;;22.77;48.08
9893;BME280;4985;49.092;8.542;2022-09-09T04:36:20;98918.78;;;22.78;48.10
9893;BME280;4985;49.092;8.542;2022-09-09T04:38:46;98924.16;;;22.78;48.10
9893;BME280;4985;49.092;8.542;2022-09-09T04:41:14;98918.78;;;22.78;48.14
9893;BME280;4985;49.092;8.542;2022-09-09T04:43:41;98930.34;;;22.79;48.14
9893;BME280;4985;49.092;8.542;2022-09-09T04:46:09;98925.78;;;22.79;48.17
9893;BME280;4985;49.092;8.542;2022-09-09T04:48:36;98935.72;;;22.79;48.13
9893;BME280;4985;49.092;8.542;2022-09-09T04:51:04;98926.84;;;22.78;48.13
9893;BME280;4985;49.092;8.542;2022-09-09T04:53:32;98934.09;;;22.78;48.18
9893;BME280;4985;49.092;8.542;2022-09-09T04:56:03;98934.91;;;22.78;48.15
9893;BME280;4985;49.092;8.542;2022-09-09T04:58:30;98943.75;;;22.79;48.15
9893;BME280;4985;49.092;8.542;2022-09-09T05:01:03;98940.25;;;22.78;48.16
9893;BME280;4985;49.092;8.542;2022-09-09T05:03:31;98943.75;;;22.79;48.18
9893;BME280;4985;49.092;8.542;2022-09-09T05:06:03;98945.62;;;22.78;48.18
9893;BME280;4985;49.092;8.542;2022-09-09T05:08:30;98951.81;;;22.79;48.18
9893;BME280;4985;49.092;8.542;2022-09-09T05:10:56;98946.44;;;22.79;48.20
9893;BME280;4985;49.092;8.542;2022-09-09T05:13:23;98949.13;;;22.79;48.21
9893;BME280;4985;49.092;8.542;2022-09-09T05:15:51;98951.81;;;22.79;48.20
9893;BME280;4985;49.092;8.542;2022-09-09T05:18:18;98954.50;;;22.79;48.22
9893;BME280;4985;49.092;8.542;2022-09-09T05:20:46;98953.44;;;22.80;48.21
9893;BME280;4985;49.092;8.542;2022-09-09T05:23:12;98957.19;;;22.79;48.20
9893;BME280;4985;49.092;8.542;2022-09-09T05:25:40;98957.19;;;22.79;48.21
9893;BME280;4985;49.092;8.542;2022-09-09T05:28:07;98952.62;;;22.79;48.20
9893;BME280;4985;49.092;8.542;2022-09-09T05:30:34;98959.84;;;22.79;48.20
9893;BME280;4985;49.092;8.542;2022-09-09T05:33:00;98967.09;;;22.78;48.23
9893;BME280;4985;49.092;8.542;2022-09-09T05:35:27;98961.72;;;22.78;48.24
9893;BME280;4985;49.092;8.542;2022-09-09T05:37:59;98960.91;;;22.78;48.24
9893;BME280;4985;49.092;8.542;2022-09-09T05:40:25;98967.91;;;22.79;48.25
9893;BME280;4985;49.092;8.542;2022-09-09T05:42:52;98967.09;;;22.78;48.24
9893;BME280;4985;49.092;8.542;2022-09-09T05:45:19;98958.25;;;22.78;48.26
9893;BME280;4985;49.092;8.542;2022-09-09T05:47:51;98970.59;;;22.79;48.26
9893;BME280;4985;49.092;8.542;2022-09-09T05:50:18;98957.91;;;22.74;48.29
9893;BME280;4985;49.092;8.542;2022-09-09T05:52:45;98974.34;;;22.78;48.26
9893;BME280;4985;49.092;8.542;2022-09-09T05:55:13;98967.09;;;22.78;48.28
9893;BME280;4985;49.092;8.542;2022-09-09T05:57:40;98966.28;;;22.78;48.27
9893;BME280;4985;49.092;8.542;2022-09-09T06:00:08;98970.59;;;22.79;48.26
9893;BME280;4985;49.092;8.542;2022-09-09T06:02:35;98964.16;;;22.80;48.25
9893;BME280;4985;49.092;8.542;2022-09-09T06:05:04;98962.53;;;22.79;48.24
9893;BME280;4985;49.092;8.542;2022-09-09T06:07:31;98971.41;;;22.79;48.25
9893;BME280;4985;49.092;8.542;2022-09-09T06:09:58;98979.44;;;22.79;48.25
9893;BME280;4985;49.092;8.542;2022-09-09T06:12:26;98970.59;;;22.79;48.28
9893;BME280;4985;49.092;8.542;2022-09-09T06:14:53;98970.59;;;22.79;48.26
9893;BME280;4985;49.092;8.542;2022-09-09T06:17:19;98970.59;;;22.79;48.25
9893;BME280;4985;49.092;8.542;2022-09-09T06:19:46;98975.97;;;22.79;48.23
9893;BME280;4985;49.092;8.542;2022-09-09T06:22:12;98978.66;;;22.79;48.24
9893;BME280;4985;49.092;8.542;2022-09-09T06:24:39;98985.88;;;22.78;48.24
9893;BME280;4985;49.092;8.542;2022-09-09T06:27:05;98977.03;;;22.78;48.21
9893;BME280;4985;49.092;8.542;2022-09-09T06:29:33;98978.09;;;22.77;48.18
9893;BME280;4985;49.092;8.542;2022-09-09T06:32:00;98978.09;;;22.77;48.13
9893;BME280;4985;49.092;8.542;2022-09-09T06:34:27;98983.69;;;22.75;48.16
9893;BME280;4985;49.092;8.542;2022-09-09T06:36:54;98977.50;;;22.75;48.18
9893;BME280;4985;49.092;8.542;2022-09-09T06:39:23;98980.78;;;22.77;48.15
9893;BME280;4985;49.092;8.542;2022-09-09T06:41:49;98978.09;;;22.77;48.21
9893;BME280;4985;49.092;8.542;2022-09-09T06:44:18;98979.94;;;22.76;48.15
9893;BME280;4985;49.092;8.542;2022-09-09T06:46:46;98987.16;;;22.76;48.17
9893;BME280;4985;49.092;8.542;2022-09-09T06:49:13;98988.22;;;22.75;48.18
9893;BME280;4985;49.092;8.542;2022-09-09T06:51:40;98990.34;;;22.73;48.34
9893;BME280;4985;49.092;8.542;2022-09-09T06:54:08;98988.75;;;22.72;48.31
9893;BME280;4985;49.092;8.542;2022-09-09T06:56:36;98981.25;;;22.74;48.22
9893;BME280;4985;49.092;8.542;2022-09-09T06:59:07;98977.50;;;22.75;48.16
9893;BME280;4985;49.092;8.542;2022-09-09T07:01:35;98978.31;;;22.75;48.12
9893;BME280;4985;49.092;8.542;2022-09-09T07:04:04;98978.56;;;22.74;48.14
9893;BME280;4985;49.092;8.542;2022-09-09T07:06:34;98983.94;;;22.74;48.14
9893;BME280;4985;49.092;8.542;2022-09-09T07:09:03;98988.22;;;22.75;48.11
9893;BME280;4985;49.092;8.542;2022-09-09T07:11:32;98981.25;;;22.74;48.15
9893;BME280;4985;49.092;8.542;2022-09-09T07:14:00;98989.03;;;22.75;48.12
9893;BME280;4985;49.092;8.542;2022-09-09T07:16:27;98988.22;;;22.75;48.12
9893;BME280;4985;49.092;8.542;2022-09-09T07:18:54;98998.97;;;22.75;48.09
9893;BME280;4985;49.092;8.542;2022-09-09T07:21:24;98990.91;;;22.75;48.06
9893;BME280;4985;49.092;8.542;2022-09-09T07:23:53;98984.47;;;22.76;48.08
9893;BME280;4985;49.092;8.542;2022-09-09T07:26:21;98979.63;;;22.73;48.08
9893;BME280;4985;49.092;8.542;2022-09-09T07:28:49;98981.00;;;22.75;48.08
9893;BME280;4985;49.092;8.542;2022-09-09T07:31:17;98982.06;;;22.74;48.15
9893;BME280;4985;49.092;8.542;2022-09-09T07:33:46;98981.25;;;22.74;48.21
9893;BME280;4985;49.092;8.542;2022-09-09T07:36:15;98991.97;;;22.74;48.17
9893;BME280;4985;49.092;8.542;2022-09-09T07:38:46;98988.22;;;22.75;48.18
9893;BME280;4985;49.092;8.542;2022-09-09T07:41:16;98986.63;;;22.74;48.16
9893;BME280;4985;49.092;8.542;2022-09-09T07:43:44;98998.16;;;22.74;48.17
9893;BME280;4985;49.092;8.542;2022-09-09T07:46:12;99000.03;;;22.74;48.17
9893;BME280;4985;49.092;8.542;2022-09-09T07:48:43;99000.28;;;22.72;48.21
9893;BME280;4985;49.092;8.542;2022-09-09T07:51:11;99001.47;;;22.59;48.83
9893;BME280;4985;49.092;8.542;2022-09-09T07:53:43;98994.87;;;22.67;48.57
9893;BME280;4985;49.092;8.542;2022-09-09T07:56:12;98987.78;;;22.61;49.00
9893;BME280;4985;49.092;8.542;2022-09-09T07:58:40;98991.72;;;22.53;48.89
9893;BME280;4985;49.092;8.542;2022-09-09T08:01:08;98994.63;;;22.52;49.17
9893;BME280;4985;49.092;8.542;2022-09-09T08:03:35;98994.97;;;22.55;48.97
9893;BME280;4985;49.092;8.542;2022-09-09T08:06:03;98996.91;;;22.60;48.72
9893;BME280;4985;49.092;8.542;2022-09-09T08:08:29;98993.47;;;22.64;48.57
9893;BME280;4985;49.092;8.542;2022-09-09T08:11:03;99000.78;;;22.69;48.44
9893;BME280;4985;49.092;8.542;2022-09-09T08:13:30;99002.16;;;22.72;48.39
9893;BME280;4985;49.092;8.542;2022-09-09T08:16:04;98992.47;;;22.71;48.45
9893;BME280;4985;49.092;8.542;2022-09-09T08:18:30;98993.41;;;22.59;48.73
9893;BME280;4985;49.092;8.542;2022-09-09T08:20:57;98995.59;;;22.62;48.51
9893;BME280;4985;49.092;8.542;2022-09-09T08:23:24;98996.84;;;22.55;48.63
9893;BME280;4985;49.092;8.542;2022-09-09T08:25:51;98989.28;;;22.52;48.52
9893;BME280;4985;49.092;8.542;2022-09-09T08:28:19;98984.72;;;22.52;48.40
9893;BME280;4985;49.092;8.542;2022-09-09T08:30:45;98988.47;;;22.51;48.37
9893;BME280;4985;49.092;8.542;2022-09-09T08:33:13;98994.97;;;22.55;48.31
9893;BME280;4985;49.092;8.542;2022-09-09T08:35:39;98991.22;;;22.56;48.12
9893;BME280;4985;49.092;8.542;2022-09-09T08:38:15;98994.09;;;22.50;48.09
9893;BME280;4985;49.092;8.542;2022-09-09T08:40:45;98997.06;;;22.53;47.92
9893;BME280;4985;49.092;8.542;2022-09-09T08:43:14;99000.50;;;22.49;47.92
9893;BME280;4985;49.092;8.542;2022-09-09T08:45:49;99006.78;;;22.54;47.89
9893;BME280;4985;49.092;8.542;2022-09-09T08:48:29;99000.91;;;22.57;47.94
9893;BME280;4985;49.092;8.542;2022-09-09T08:51:01;99004.31;;;22.53;47.76
9893;BME280;4985;49.092;8.542;2022-09-09T08:53:32;99006.53;;;22.56;47.80
9893;BME280;4985;49.092;8.542;2022-09-09T08:56:09;99016.44;;;22.55;47.74
9893;BME280;4985;49.092;8.542;2022-09-09T08:58:44;99030.31;;;22.52;48.42
9893;BME280;4985;49.092;8.542;2022-09-09T09:04:14;99031.09;;;22.31;50.56
9893;BME280;4985;49.092;8.542;2022-09-09T09:06:50;99027.38;;;22.32;50.56
9893;BME280;4985;49.092;8.542;2022-09-09T09:09:23;99019.00;;;22.28;50.70
9893;BME280;4985;49.092;8.542;2022-09-09T09:11:55;99022.56;;;22.17;50.75
9893;BME280;4985;49.092;8.542;2022-09-09T09:14:28;99027.19;;;22.05;51.07
9893;BME280;4985;49.092;8.542;2022-09-09T09:16:59;99029.28;;;22.03;51.29
9893;BME280;4985;49.092;8.542;2022-09-09T09:19:27;99030.03;;;21.98;51.61
9893;BME280;4985;49.092;8.542;2022-09-09T09:22:00;99033.84;;;22.02;52.22
9893;BME280;4985;49.092;8.542;2022-09-09T09:24:36;99036.09;;;21.94;52.22
9893;BME280;4985;49.092;8.542;2022-09-09T09:27:12;99032.22;;;22.01;52.00
9893;BME280;4985;49.092;8.542;2022-09-09T09:29:39;99024.50;;;22.05;52.35
9893;BME280;4985;49.092;8.542;2022-09-09T09:32:11;99023.81;;;22.10;52.83
9893;BME280;4985;49.092;8.542;2022-09-09T09:34:40;99014.16;;;22.08;52.31
9893;BME280;4985;49.092;8.542;2022-09-09T09:37:12;99016.25;;;22.06;52.40
9893;BME280;4985;49.092;8.542;2022-09-09T09:39:42;99014.16;;;22.08;52.21
9893;BME280;4985;49.092;8.542;2022-09-09T09:42:10;99010.28;;;22.04;52.24
9893;BME280;4985;49.092;8.542;2022-09-09T09:44:39;99010.63;;;22.08;52.00
9893;BME280;4985;49.092;8.542;2022-09-09T09:47:11;99015.03;;;22.14;51.30
9893;BME280;4985;49.092;8.542;2022-09-09T09:49:38;99006.47;;;22.17;51.28
9893;BME280;4985;49.092;8.542;2022-09-09T09:52:06;99008.69;;;22.20;51.39
9893;BME280;4985;49.092;8.542;2022-09-09T09:54:37;98998.78;;;22.21;51.02
9893;BME280;4985;49.092;8.542;2022-09-09T09:57:09;99005.03;;;22.26;51.32
9893;BME280;4985;49.092;8.542;2022-09-09T09:59:36;99008.69;;;22.20;51.09
9893;BME280;4985;49.092;8.542;2022-09-09T10:02:18;99014.72;;;22.11;51.14
9893;BME280;4985;49.092;8.542;2022-09-09T10:04:45;99012.91;;;22.16;51.10
9893;BME280;4985;49.092;8.542;2022-09-09T10:07:15;99010.53;;;22.20;51.28
9893;BME280;4985;49.092;8.542;2022-09-09T10:09:43;99008.84;;;22.14;51.14
9893;BME280;4985;49.092;8.542;2022-09-09T10:12:22;99006.16;;;22.14;51.08
9893;BME280;4985;49.092;8.542;2022-09-09T10:15:00;99009.41;;;22.16;50.78
9893;BME280;4985;49.092;8.542;2022-09-09T10:17:36;98997.13;;;22.20;50.36
9893;BME280;4985;49.092;8.542;2022-09-09T10:20:21;99003.00;;;22.17;50.58
9893;BME280;4985;49.092;8.542;2022-09-09T10:23:02;99004.63;;;22.18;50.49
9893;BME280;4985;49.092;8.542;2022-09-09T10:25:50;99002.75;;;22.18;50.41
9893;BME280;4985;49.092;8.542;2022-09-09T10:28:36;98995.50;;;22.19;50.03
9893;BME280;4985;49.092;8.542;2022-09-09T10:31:16;99001.69;;;22.19;49.42
9893;BME280;4985;49.092;8.542;2022-09-09T10:33:50;99000.00;;;22.13;49.38
9893;BME280;4985;49.092;8.542;2022-09-09T10:36:20;98996.81;;;22.16;49.03
9893;BME280;4985;49.092;8.542;2022-09-09T10:38:49;98991.97;;;22.13;49.03
9893;BME280;4985;49.092;8.542;2022-09-09T10:41:24;98996.56;;;22.18;48.90
9893;BME280;4985;49.092;8.542;2022-09-09T10:44:21;98993.44;;;22.21;48.65
9893;BME280;4985;49.092;8.542;2022-09-09T10:47:05;99009.72;;;22.19;48.63
9893;BME280;4985;49.092;8.542;2022-09-09T10:49:54;98990.50;;;22.22;48.68
9893;BME280;4985;49.092;8.542;2022-09-09T10:52:29;99003.97;;;22.27;48.60
9893;BME280;4985;49.092;8.542;2022-09-09T10:55:01;98999.91;;;22.25;48.39
9893;BME280;4985;49.092;8.542;2022-09-09T10:57:32;98991.31;;;22.23;48.21
9893;BME280;4985;49.092;8.542;2022-09-09T11:00:04;98993.22;;;22.27;48.17
9893;BME280;4985;49.092;8.542;2022-09-09T11:02:33;98993.22;;;22.27;48.22
9893;BME280;4985;49.092;8.542;2022-09-09T11:05:05;99008.00;;;22.30;48.24
9893;BME280;4985;49.092;8.542;2022-09-09T11:07:37;99019.53;;;22.30;48.13
9893;BME280;4985;49.092;8.542;2022-09-09T11:10:17;99012.75;;;22.23;48.16
9893;BME280;4985;49.092;8.542;2022-09-09T11:12:46;99014.12;;;22.25;47.78
9893;BME280;4985;49.092;8.542;2022-09-09T11:15:18;99017.06;;;22.24;47.63
9893;BME280;4985;49.092;8.542;2022-09-09T11:17:48;99013.06;;;22.26;47.41
9893;BME280;4985;49.092;8.542;2022-09-09T11:20:17;99006.06;;;22.25;47.48
9893;BME280;4985;49.092;8.542;2022-09-09T11:22:48;99016.06;;;22.30;47.25
9893;BME280;4985;49.092;8.542;2022-09-09T11:25:20;99010.63;;;22.25;46.94
9893;BME280;4985;49.092;8.542;2022-09-09T11:28:04;99011.94;;;22.22;46.55
9893;BME280;4985;49.092;8.542;2022-09-09T11:30:40;99012.50;;;22.24;46.82
9893;BME280;4985;49.092;8.542;2022-09-09T11:33:34;99016.81;;;22.25;46.82
9893;BME280;4985;49.092;8.542;2022-09-09T11:36:43;99018.25;;;22.33;46.99
9893;BME280;4985;49.092;8.542;2022-09-09T11:39:35;99020.13;;;22.32;47.18
9893;BME280;4985;49.092;8.542;2022-09-09T11:42:16;99009.97;;;22.34;47.30
9893;BME280;4985;49.092;8.542;2022-09-09T11:44:43;99005.91;;;22.32;47.21
9893;BME280;4985;49.092;8.542;2022-09-09T11:47:21;98999.00;;;22.36;47.36
9893;BME280;4985;49.092;8.542;2022-09-09T11:49:50;98996.63;;;22.40;47.56
9893;BME280;4985;49.092;8.542;2022-09-09T11:52:23;98984.59;;;22.42;47.60
9893;BME280;4985;49.092;8.542;2022-09-09T11:54:54;98987.03;;;22.44;47.64
9893;BME280;4985;49.092;8.542;2022-09-09T11:57:26;98980.63;;;22.45;47.44
9893;BME280;4985;49.092;8.542;2022-09-09T11:59:57;98978.75;;;22.45;47.42
9893;BME280;4985;49.092;8.542;2022-09-09T12:02:25;98966.41;;;22.44;47.44
9893;BME280;4985;49.092;8.542;2022-09-09T12:04:58;98969.63;;;22.46;47.25
9893;BME280;4985;49.092;8.542;2022-09-09T12:07:34;98958.91;;;22.46;47.24
9893;BME280;4985;49.092;8.542;2022-09-09T12:10:05;98962.16;;;22.48;46.91
9893;BME280;4985;49.092;8.542;2022-09-09T12:12:45;98946.88;;;22.49;46.46
9893;BME280;4985;49.092;8.542;2022-09-09T12:15:24;98953.28;;;22.48;45.64
9893;BME280;4985;49.092;8.542;2022-09-09T12:17:54;98956.78;;;22.48;45.73
9893;BME280;4985;49.092;8.542;2022-09-09T12:20:23;98960.84;;;22.51;45.78
9893;BME280;4985;49.092;8.542;2022-09-09T12:23:04;98956.28;;;22.51;45.55
9893;BME280;4985;49.092;8.542;2022-09-09T12:25:41;98951.72;;;22.52;45.81
9893;BME280;4985;49.092;8.542;2022-09-09T12:28:17;98957.91;;;22.52;46.10
9893;BME280;4985;49.092;8.542;2022-09-09T12:30:50;98951.25;;;22.55;45.92
9893;BME280;4985;49.092;8.542;2022-09-09T12:33:20;98953.69;;;22.56;46.12
9893;BME280;4985;49.092;8.542;2022-09-09T12:35:53;98944.56;;;22.57;45.78
9893;BME280;4985;49.092;8.542;2022-09-09T12:38:31;98930.09;;;22.58;45.88
9893;BME280;4985;49.092;8.542;2022-09-09T12:40:59;98940.81;;;22.58;45.85
9893;BME280;4985;49.092;8.542;2022-09-09T12:43:27;98931.72;;;22.59;45.82
9893;BME280;4985;49.092;8.542;2022-09-09T12:45:56;98932.53;;;22.60;45.56
9893;BME280;4985;49.092;8.542;2022-09-09T12:48:31;98933.34;;;22.60;45.35
9893;BME280;4985;49.092;8.542;2022-09-09T12:50:58;98932.81;;;22.63;45.34
9893;BME280;4985;49.092;8.542;2022-09-09T12:53:30;98929.66;;;22.66;45.49
9893;BME280;4985;49.092;8.542;2022-09-09T12:56:00;98940.94;;;22.69;45.23
9893;BME280;4985;49.092;8.542;2022-09-09T12:58:29;98938.81;;;22.71;45.21
9893;BME280;4985;49.092;8.542;2022-09-09T13:00:58;98938.00;;;22.70;44.61
9893;BME280;4985;49.092;8.542;2022-09-09T13:03:26;98936.66;;;22.67;44.14
9893;BME280;4985;49.092;8.542;2022-09-09T13:05:53;98942.56;;;22.70;44.10
9893;BME280;4985;49.092;8.542;2022-09-09T13:08:24;98946.06;;;22.70;44.24
9893;BME280;4985;49.092;8.542;2022-09-09T13:10:55;98940.94;;;22.69;44.10
9893;BME280;4985;49.092;8.542;2022-09-09T13:13:27;98941.47;;;22.65;43.88
9893;BME280;4985;49.092;8.542;2022-09-09T13:15:56;98943.06;;;22.66;44.09
9893;BME280;4985;49.092;8.542;2022-09-09T13:18:26;98949.25;;;22.67;44.12
9893;BME280;4985;49.092;8.542;2022-09-09T13:20:53;98941.47;;;22.65;44.13
9893;BME280;4985;49.092;8.542;2022-09-09T13:23:27;98949.25;;;22.67;44.16
9893;BME280;4985;49.092;8.542;2022-09-09T13:25:57;98936.91;;;22.66;43.76
9893;BME280;4985;49.092;8.542;2022-09-09T13:28:25;98938.69;;;22.60;42.74
9893;BME280;4985;49.092;8.542;2022-09-09T13:30:56;98939.72;;;22.54;41.85
9893;BME280;4985;49.092;8.542;2022-09-09T13:33:30;98942.19;;;22.61;42.99
9893;BME280;4985;49.092;8.542;2022-09-09T13:35:59;98948.66;;;22.65;43.23
9893;BME280;4985;49.092;8.542;2022-09-09T13:38:28;98952.19;;;22.65;43.30
9893;BME280;4985;49.092;8.542;2022-09-09T13:40:58;98946.81;;;22.65;43.09
9893;BME280;4985;49.092;8.542;2022-09-09T13:43:28;98947.63;;;22.66;43.15
9893;BME280;4985;49.092;8.542;2022-09-09T13:45:57;98944.69;;;22.67;43.64
9893;BME280;4985;49.092;8.542;2022-09-09T13:48:25;98945.50;;;22.68;43.65